KVRB/VRB METAR and TAF weather

Enter ICAO airport designator
Station Type Date Time Source
KVRB METAR 2020/09/24 09:53 UTC NOAA

KVRB 240953Z AUTO 10011KT 10SM SCT034 OVC060 26/21 A2994 RMK AO2 SLP138 T02610206


Station Type Date Time Source
KVRB Decoded METAR 2020/09/24 09:53 UTC NOAA

VERO BEACH MUNICIPAL AIRPORT , FL, United States (KVRB) 27-39N 080-25W 10M
Sep 24, 2020 - 05:53 AM EDT / 2020.09.24 0953 UTC
Wind: from the E (100 degrees) at 13 MPH (11 KT):0
Visibility: 10 mile(s):0
Sky conditions: overcast
Temperature: 79.0 F (26.1 C)
Dew Point: 69.1 F (20.6 C)
Relative Humidity: 71%
Pressure (altimeter): 29.94 in. Hg (1013 hPa)
ob: KVRB 240953Z AUTO 10011KT 10SM SCT034 OVC060 26/21 A2994 RMK AO2 SLP138 T02610206
cycle: 10

Station Type Date Time Source
KVRB TAF 2020/09/24 06:48 UTC NOAA

TAF KVRB 240545Z 2406/2506 11006KT P6SM VCSH FEW030 BKN060
FM241500 12014G19KT P6SM SCT035 BKN250
FM250200 12011KT P6SM VCSH SCT025 BKN060

Example: see airport list